This is the latest recevied weather packets stored in our database for station/object LRTM. If no packets are shown the sender has not sent any weather packets the latest 10 day(s).
| Time | Temp. | Humidity | Pressure | Rain* | Wind** | Luminosity | Snow |
|---|---|---|---|---|---|---|---|
| 1777941206 | 5° C | 81% | 1016 hPa | - | - | - | - |
| 1777940307 | 7.22° C | 76% | 1016 hPa | - | - | - | - |
| 1777939406 | 7.22° C | 76% | 1016 hPa | - | - | - | - |
| 1777938506 | 7.78° C | 76% | 1016 hPa | - | - | - | - |
| 1777937606 | 7.78° C | 76% | 1016 hPa | - | - | - | - |
| 1777936707 | 7.22° C | 76% | 1016 hPa | - | - | - | - |
| 1777935806 | 7.22° C | 76% | 1016 hPa | - | - | - | - |
| 1777934906 | 7.78° C | 76% | 1016 hPa | - | - | - | - |
| 1777934006 | 7.78° C | 76% | 1016 hPa | - | - | - | - |
| 1777933129 | 7.78° C | 71% | 1016 hPa | - | - | - | - |
| 1777932206 | 7.78° C | 71% | 1016 hPa | - | - | - | - |
| 1777931306 | 11.11° C | 62% | 1016 hPa | - | - | - | - |
| 1777930422 | 11.11° C | 62% | 1016 hPa | - | - | - | - |
| 1777929506 | 11.11° C | 62% | 1016 hPa | - | - | - | - |
| 1777928606 | 11.11° C | 62% | 1016 hPa | - | - | - | - |
| 1777927706 | 11.11° C | 62% | 1016 hPa | - | - | - | - |
| 1777926808 | 11.11° C | 62% | 1016 hPa | - | - | - | - |
| 1777925906 | 12.22° C | 54% | 1016 hPa | - | - | - | - |
| 1777925007 | 12.22° C | 54% | 1016 hPa | - | - | - | - |
| 1777924106 | 12.78° C | 55% | 1016 hPa | - | - | - | - |
| 1777923207 | 12.78° C | 55% | 1016 hPa | - | - | - | - |
| 1777922306 | 15° C | 48% | 1016 hPa | - | - | - | - |
| 1777921407 | 15° C | 48% | 1016 hPa | - | - | - | - |
| 1777920506 | 16.11° C | 45% | 1015 hPa | - | - | - | - |
| 1777919617 | 16.11° C | 45% | 1015 hPa | - | - | - | - |
* Rain since midnight (hover to see other rain measurements)
** Current wind speed in m/s (hover to see current wind gust speed)